Time;durP1;ratioP1;P1;durP2;ratioP2;P2;SDS_P1;SDS_P2;PMS_P1;PMS_P2;Temp;Humidity;BMP_temperature;BMP_pressure;BME280_temperature;BME280_humidity;BME280_pressure;Samples;Min_cycle;Max_cycle;Signal;HPM_P1;HPM_P2
2021/06/22 00:02:48;;;;;;;6.13;5.63;;;19.10;96.10;;;;;;4980294;28;20493;-83
2021/06/22 00:05:35;;;;;;;5.80;5.30;;;19.30;95.60;;;;;;4975420;28;20467;-84
2021/06/22 00:08:30;;;;;;;;;;;;;;;;;;;;;
2021/06/22 00:11:20;;;;;;;5.83;5.37;;;19.10;96.30;;;;;;4979932;28;20538;-85
2021/06/22 00:13:58;;;;;;;6.90;6.33;;;19.00;96.90;;;;;;4967279;28;20490;-86
2021/06/22 00:16:33;;;;;;;6.07;5.57;;;19.20;96.60;;;;;;5021536;28;20453;-84
2021/06/22 00:19:20;;;;;;;6.20;5.70;;;18.90;96.60;;;;;;5024644;28;20493;-85
2021/06/22 00:22:02;;;;;;;6.57;5.97;;;18.90;97.20;;;;;;5026961;28;21383;-83
2021/06/22 00:24:40;;;;;;;5.97;5.43;;;19.00;96.50;;;;;;5027899;28;20469;-83
2021/06/22 00:27:34;;;;;;;5.87;5.37;;;19.00;96.40;;;;;;5027133;28;20467;-83
2021/06/22 00:30:23;;;;;;;5.40;4.90;;;18.90;96.20;;;;;;5049830;28;20449;-86
2021/06/22 00:33:02;;;;;;;4.90;4.50;;;18.80;96.20;;;;;;5051389;28;20557;-85
2021/06/22 00:35:50;;;;;;;7.07;6.33;;;19.00;95.90;;;;;;5031152;28;20453;-84
2021/06/22 00:38:40;;;;;;;4.73;4.40;;;19.00;95.80;;;;;;5032779;28;20472;-84
2021/06/22 00:41:31;;;;;;;4.37;4.07;;;19.00;95.30;;;;;;5037736;28;20455;-85
2021/06/22 00:44:12;;;;;;;5.03;4.63;;;19.10;95.30;;;;;;5052029;28;20444;-85
2021/06/22 00:46:55;;;;;;;3.80;3.50;;;18.80;95.80;;;;;;5042832;28;20465;-85
2021/06/22 00:49:40;;;;;;;4.50;4.10;;;18.60;96.20;;;;;;5009632;28;20538;-84
2021/06/22 00:52:59;;;;;;;4.10;3.80;;;18.90;96.00;;;;;;5006103;28;20487;-84
2021/06/22 00:55:41;;;;;;;4.20;3.80;;;18.80;96.20;;;;;;5010408;28;20476;-83
2021/06/22 00:58:28;;;;;;;3.43;3.13;;;18.70;96.20;;;;;;5008073;28;20490;-82
2021/06/22 01:01:56;;;;;;;3.60;3.27;;;18.70;96.20;;;;;;4986703;28;20446;-85
2021/06/22 01:04:57;;;;;;;2.40;2.20;;;18.70;95.80;;;;;;4934999;28;20472;-84
2021/06/22 01:07:46;;;;;;;2.93;2.73;;;18.60;96.20;;;;;;4936421;28;20467;-84
2021/06/22 01:10:37;;;;;;;2.43;2.30;;;18.50;96.40;;;;;;4948087;28;20590;-82
2021/06/22 01:13:09;;;;;;;2.00;1.90;;;18.50;96.40;;;;;;4953486;28;20506;-82
2021/06/22 01:16:26;;;;;;;2.00;1.60;;;18.40;96.40;;;;;;4925257;29;20541;-84
2021/06/22 01:19:29;;;;;;;2.40;2.20;;;18.30;96.20;;;;;;4924150;29;20445;-84
2021/06/22 01:22:13;;;;;;;2.80;2.07;;;18.20;96.10;;;;;;4923625;29;20445;-84
2021/06/22 01:25:01;;;;;;;2.13;1.80;;;18.20;96.50;;;;;;4903136;29;20525;-82
2021/06/22 01:27:51;;;;;;;;;;;;;;;;;;;;;
2021/06/22 01:30:34;;;;;;;2.20;1.60;;;18.20;96.30;;;;;;4927415;29;20466;-84
2021/06/22 01:33:15;;;;;;;2.03;1.83;;;18.10;96.60;;;;;;4927577;29;20457;-85
2021/06/22 01:36:02;;;;;;;1.30;1.30;;;18.20;96.80;;;;;;4925761;28;20539;-83
2021/06/22 01:39:12;;;;;;;2.10;1.70;;;18.30;96.00;;;;;;4947956;28;20483;-84
2021/06/22 01:41:47;;;;;;;2.00;1.60;;;18.20;96.10;;;;;;4952125;28;20456;-83
2021/06/22 01:44:20;;;;;;;1.80;1.70;;;18.20;96.30;;;;;;4952312;28;20464;-83
2021/06/22 01:47:09;;;;;;;3.93;1.87;;;18.20;96.40;;;;;;4951152;28;20453;-84
2021/06/22 01:50:07;;;;;;;3.90;1.90;;;18.30;96.10;;;;;;4951434;28;20502;-83
2021/06/22 02:00:35;;;;;;;1.80;1.70;;;18.10;96.70;;;;;;4836107;29;20518;-85
2021/06/22 02:03:30;;;;;;;2.97;2.70;;;18.10;96.60;;;;;;4899784;28;20462;-84
2021/06/22 02:06:15;;;;;;;2.30;1.80;;;18.00;96.60;;;;;;4953089;28;20536;-84
2021/06/22 02:09:03;;;;;;;1.93;1.83;;;18.00;97.00;;;;;;4964556;28;20480;-84
2021/06/22 02:11:50;;;;;;;2.30;2.20;;;18.20;97.00;;;;;;4955849;28;20522;-83
2021/06/22 02:14:34;;;;;;;2.00;1.90;;;18.10;96.60;;;;;;4954021;28;20478;-84
2021/06/22 02:17:29;;;;;;;2.60;2.40;;;18.20;96.60;;;;;;4960233;28;20452;-83
2021/06/22 02:20:16;;;;;;;2.67;2.47;;;18.20;96.30;;;;;;4956572;28;20437;-82
2021/06/22 02:27:03;;;;;;;2.00;1.80;;;18.00;96.60;;;;;;5000918;28;20430;-84
2021/06/22 02:30:01;;;;;;;2.80;2.00;;;17.90;96.50;;;;;;4997329;28;20455;-82
2021/06/22 02:32:43;;;;;;;2.47;2.27;;;17.80;96.90;;;;;;4998532;28;20509;-84
2021/06/22 02:35:49;;;;;;;2.20;2.10;;;17.80;97.10;;;;;;5006865;28;20478;-84
2021/06/22 02:38:46;;;;;;;2.60;2.40;;;17.90;97.00;;;;;;5010776;28;20532;-82
2021/06/22 02:45:23;;;;;;;5.30;3.13;;;17.80;97.10;;;;;;4984463;28;20431;-83
2021/06/22 02:48:11;;;;;;;3.97;3.27;;;17.80;97.40;;;;;;4998424;28;20478;-84
2021/06/22 02:50:58;;;;;;;6.53;5.93;;;18.00;97.10;;;;;;4998435;28;20455;-84
2021/06/22 02:53:31;;;;;;;6.30;5.70;;;17.90;97.70;;;;;;5006516;28;20658;-84
2021/06/22 02:56:31;;;;;;;8.60;7.70;;;17.80;98.30;;;;;;4999759;28;20529;-84
2021/06/22 02:59:09;;;;;;;9.20;8.20;;;18.00;98.40;;;;;;4997177;28;20525;-83
2021/06/22 03:05:26;;;;;;;11.67;9.23;;;18.20;97.30;;;;;;4993966;28;20424;-84
2021/06/22 03:08:03;;;;;;;10.93;8.33;;;18.30;97.50;;;;;;4960757;28;20538;-84
2021/06/22 03:10:44;;;;;;;10.60;9.50;;;18.00;97.80;;;;;;4971556;28;21083;-83
2021/06/22 03:13:36;;;;;;;9.50;8.50;;;18.00;98.20;;;;;;4972817;28;20460;-85
2021/06/22 03:16:24;;;;;;;10.67;9.33;;;18.00;98.20;;;;;;4964377;28;20534;-84
2021/06/22 03:19:13;;;;;;;11.10;8.97;;;18.10;98.00;;;;;;4969745;28;20550;-84
2021/06/22 03:26:09;;;;;;;7.67;6.97;;;18.00;98.90;;;;;;4992940;28;20539;-82
2021/06/22 03:28:56;;;;;;;11.10;7.77;;;17.90;98.50;;;;;;4946414;29;20619;-82
2021/06/22 03:31:55;;;;;;;9.23;7.20;;;17.70;98.30;;;;;;4962177;29;20465;-84
2021/06/22 03:34:39;;;;;;;7.50;6.70;;;17.60;98.80;;;;;;4959106;28;20503;-85
2021/06/22 03:37:26;;;;;;;10.43;7.70;;;17.60;98.90;;;;;;4938484;29;20474;-84
2021/06/22 03:40:22;;;;;;;8.40;6.93;;;17.50;99.10;;;;;;4884604;28;20445;-84
2021/06/22 03:43:24;;;;;;;8.00;7.13;;;17.60;99.00;;;;;;4974156;28;20483;-85
2021/06/22 03:50:11;;;;;;;6.70;5.63;;;17.60;98.90;;;;;;4968878;28;20456;-82
2021/06/22 03:52:53;;;;;;;6.80;6.07;;;17.50;98.90;;;;;;4956746;28;20523;-81
2021/06/22 03:55:33;;;;;;;8.30;5.77;;;17.40;99.00;;;;;;4945581;29;20477;-82
2021/06/22 04:01:13;;;;;;;6.87;5.60;;;17.60;98.80;;;;;;5038155;23;20486;-84
2021/06/22 04:03:56;;;;;;;5.53;4.47;;;17.60;98.50;;;;;;5005026;28;20451;-83
2021/06/22 04:06:48;;;;;;;4.57;4.00;;;17.60;98.50;;;;;;4994228;28;20534;-83
2021/06/22 04:12:55;;;;;;;;;;;;;;;;;;;;;
2021/06/22 04:15:37;;;;;;;3.50;3.30;;;17.50;98.20;;;;;;4987982;28;20478;-84
2021/06/22 04:18:37;;;;;;;4.37;3.97;;;17.40;98.20;;;;;;4980658;28;20479;-84
2021/06/22 04:21:39;;;;;;;4.00;3.60;;;17.60;98.20;;;;;;4975992;28;20452;-84
2021/06/22 04:32:12;;;;;;;3.67;3.20;;;17.40;98.80;;;;;;4928836;29;20538;-83
2021/06/22 04:36:05;;;;;;;;;;;;;;;;;;;;;
2021/06/22 04:38:59;;;;;;;3.07;2.77;;;17.20;98.70;;;;;;4882066;29;20501;-83
2021/06/22 04:41:40;;;;;;;3.60;3.30;;;17.20;98.60;;;;;;4889822;29;20549;-83
2021/06/22 04:47:43;;;;;;;3.77;2.63;;;17.30;98.60;;;;;;4869039;29;20480;-82
2021/06/22 04:50:28;;;;;;;3.40;3.10;;;17.40;98.20;;;;;;4924675;29;20500;-83
2021/06/22 04:53:29;;;;;;;3.23;3.00;;;17.30;98.50;;;;;;4849203;29;20507;-82
2021/06/22 04:56:04;;;;;;;3.47;3.17;;;17.20;98.80;;;;;;4857990;29;20499;-86
2021/06/22 04:59:00;;;;;;;2.70;2.50;;;17.20;99.20;;;;;;4861456;29;20484;-83
2021/06/22 05:01:59;;;;;;;;;;;;;;;;;;;;;
2021/06/22 05:08:25;;;;;;;4.10;3.40;;;17.30;98.90;;;;;;4849921;29;20538;-82
2021/06/22 05:11:20;;;;;;;4.23;3.13;;;17.30;99.00;;;;;;4873803;29;20548;-83
2021/06/22 05:14:13;;;;;;;5.27;2.83;;;17.20;99.00;;;;;;4872800;29;20484;-84
2021/06/22 05:16:53;;;;;;;3.37;2.57;;;17.20;99.20;;;;;;4887566;29;20461;-85
2021/06/22 05:20:00;;;;;;;3.30;2.60;;;17.40;98.80;;;;;;4870423;29;20469;-85
2021/06/22 05:23:06;;;;;;;3.03;2.30;;;17.30;98.40;;;;;;4823715;29;20464;-84
2021/06/22 05:29:44;;;;;;;3.30;2.60;;;17.20;99.00;;;;;;4862807;29;20480;-84
2021/06/22 05:33:27;;;;;;;3.30;2.50;;;17.50;98.70;;;;;;4790428;29;20449;-86
2021/06/22 05:36:11;;;;;;;2.73;2.40;;;17.40;98.90;;;;;;4778894;29;20441;-85
2021/06/22 05:42:37;;;;;;;3.47;2.53;;;17.40;99.60;;;;;;4896611;29;20475;-83
2021/06/22 05:45:09;;;;;;;2.67;2.47;;;17.30;99.90;;;;;;4915276;29;20486;-83
2021/06/22 05:47:54;;;;;;;3.93;2.80;;;17.40;99.90;;;;;;4934799;29;20481;-84
2021/06/22 05:50:38;;;;;;;3.90;3.50;;;17.40;99.90;;;;;;4939005;29;20454;-86
2021/06/22 05:53:44;;;;;;;4.10;2.87;;;17.50;99.90;;;;;;4850647;29;20475;-84
2021/06/22 05:56:23;;;;;;;2.70;2.50;;;17.60;99.90;;;;;;4848261;29;20471;-84
2021/06/22 05:59:34;;;;;;;5.10;3.50;;;17.50;99.90;;;;;;4807807;29;20498;-85
2021/06/22 06:02:41;;;;;;;5.20;3.20;;;17.50;99.90;;;;;;4819803;29;20454;-83
2021/06/22 06:05:31;;;;;;;4.17;3.87;;;17.30;99.90;;;;;;4773410;29;20476;-83
2021/06/22 06:08:07;;;;;;;5.10;3.67;;;17.40;99.90;;;;;;4850167;29;20465;-84
2021/06/22 06:10:49;;;;;;;4.50;3.73;;;17.40;99.90;;;;;;4877339;29;20449;-85
2021/06/22 06:17:47;;;;;;;3.63;3.30;;;17.30;99.90;;;;;;4881768;29;20474;-86
2021/06/22 06:24:23;;;;;;;4.90;4.50;;;17.10;99.90;;;;;;4966156;28;20461;-84
2021/06/22 06:27:20;;;;;;;4.60;3.73;;;17.10;99.90;;;;;;4987671;28;20452;-84
2021/06/22 06:30:01;;;;;;;4.20;3.80;;;17.40;99.90;;;;;;5001483;28;20890;-84
2021/06/22 06:32:56;;;;;;;4.83;4.10;;;17.30;99.90;;;;;;4998945;28;20455;-83
2021/06/22 06:36:06;;;;;;;4.67;4.27;;;17.30;99.90;;;;;;5010443;28;20541;-85
2021/06/22 06:39:20;;;;;;;4.17;3.67;;;17.20;99.90;;;;;;5014802;28;20526;-84
2021/06/22 06:42:22;;;;;;;4.50;4.10;;;17.20;99.90;;;;;;4955185;28;20518;-83
2021/06/22 06:49:38;;;;;;;;;;;;;;;;;;;;;
2021/06/22 07:03:10;;;;;;;4.30;3.27;;;17.60;99.90;;;;;;4793851;29;20468;-82
2021/06/22 07:06:34;;;;;;;3.50;3.03;;;17.80;99.90;;;;;;4808758;29;20490;-83
2021/06/22 07:10:07;;;;;;;;;;;;;;;;;;;;;
2021/06/22 07:13:02;;;;;;;4.10;3.70;;;17.40;99.90;;;;;;4819727;29;20485;-83
2021/06/22 07:15:35;;;;;;;6.33;2.73;;;17.30;99.90;;;;;;4822486;29;20468;-83
2021/06/22 07:18:08;;;;;;;3.80;3.50;;;17.50;99.90;;;;;;4900403;29;20479;-84
2021/06/22 07:20:43;;;;;;;5.27;3.57;;;17.50;99.90;;;;;;4900779;29;20464;-86
2021/06/22 07:23:25;;;;;;;4.53;3.40;;;17.50;99.90;;;;;;4901670;29;20455;-84
2021/06/22 07:27:00;;;;;;;4.53;3.30;;;17.40;99.90;;;;;;4895140;29;20468;-86
2021/06/22 07:46:39;;;;;;;;;;;;;;;;;;;;;
2021/06/22 07:50:15;;;;;;;3.10;2.90;;;18.30;99.30;;;;;;4788686;30;20465;-82
2021/06/22 07:59:57;;;;;;;5.60;3.80;;;18.40;98.40;;;;;;1423059;26;20549;-82
2021/06/22 08:03:15;;;;;;;6.00;4.30;;;18.20;98.90;;;;;;4996052;28;20447;-82
2021/06/22 08:06:12;;;;;;;4.93;3.40;;;18.10;99.50;;;;;;4931105;29;20446;-84
2021/06/22 08:08:39;;;;;;;3.63;3.33;;;18.10;99.70;;;;;;4978928;28;20494;-83
2021/06/22 08:12:00;;;;;;;4.73;3.47;;;18.10;99.00;;;;;;4996690;28;20442;-81
2021/06/22 08:14:56;;;;;;;5.50;3.57;;;17.80;99.30;;;;;;4994325;28;20486;-83
2021/06/22 08:17:39;;;;;;;4.40;3.10;;;17.80;99.10;;;;;;5006942;28;20444;-83
2021/06/22 08:24:50;;;;;;;2.67;2.53;;;17.90;99.30;;;;;;4902788;29;20510;-86
2021/06/22 08:27:25;;;;;;;3.53;3.07;;;17.90;99.30;;;;;;4946770;28;20521;-84
2021/06/22 08:30:15;;;;;;;3.00;2.70;;;18.00;98.70;;;;;;5004567;28;20857;-84
2021/06/22 08:32:48;;;;;;;3.30;3.00;;;18.20;98.90;;;;;;5001576;28;20455;-83
2021/06/22 08:35:36;;;;;;;4.20;3.27;;;18.20;98.80;;;;;;5008465;28;20495;-83
2021/06/22 08:38:22;;;;;;;3.30;3.10;;;18.40;98.60;;;;;;5009614;28;20510;-82
2021/06/22 08:41:20;;;;;;;4.50;2.87;;;18.50;98.00;;;;;;5007035;28;20434;-83
2021/06/22 08:43:56;;;;;;;3.83;3.23;;;18.20;98.00;;;;;;5010420;28;20465;-84
2021/06/22 08:46:29;;;;;;;3.77;3.40;;;18.20;98.10;;;;;;5009253;28;20454;-83
2021/06/22 08:49:41;;;;;;;3.40;3.10;;;18.20;98.50;;;;;;5012482;28;20474;-84
2021/06/22 08:52:08;;;;;;;4.03;3.30;;;18.30;97.90;;;;;;5013080;28;20503;-83
2021/06/22 08:54:35;;;;;;;3.60;3.27;;;18.30;97.90;;;;;;5012144;28;20482;-81
2021/06/22 08:57:04;;;;;;;3.73;3.07;;;18.20;98.00;;;;;;5009113;28;20451;-81
2021/06/22 09:17:47;;;;;;;;;;;;;;;;;;;;;
2021/06/22 09:21:30;;;;;;;5.47;3.47;;;18.20;97.00;;;;;;5075763;28;20197;-82
2021/06/22 09:28:41;;;;;;;5.20;3.30;;;18.60;96.60;;;;;;5073073;28;20502;-85
2021/06/22 09:31:18;;;;;;;4.17;3.37;;;18.60;96.60;;;;;;5073465;28;20477;-83
2021/06/22 09:34:12;;;;;;;3.00;2.70;;;18.40;96.40;;;;;;5059912;28;20502;-83
2021/06/22 09:37:16;;;;;;;3.63;3.00;;;18.30;96.70;;;;;;5063941;28;20482;-83
2021/06/22 09:47:54;;;;;;;3.93;2.87;;;18.70;96.30;;;;;;5078290;28;20458;-83
2021/06/22 09:50:48;;;;;;;4.20;3.27;;;18.70;95.90;;;;;;5055791;28;20462;-83
2021/06/22 09:57:27;;;;;;;4.03;3.63;;;18.40;96.00;;;;;;5071946;28;20383;-81
2021/06/22 10:00:16;;;;;;;4.10;2.93;;;18.80;96.10;;;;;;5065329;28;20513;-83
2021/06/22 10:03:01;;;;;;;7.07;3.20;;;18.70;95.60;;;;;;5065699;28;20448;-83
2021/06/22 10:06:14;;;;;;;2.90;2.63;;;18.50;95.60;;;;;;4956814;29;20440;-84
2021/06/22 10:12:38;;;;;;;6.23;3.80;;;18.80;95.90;;;;;;5052368;28;20461;-84
2021/06/22 10:16:20;;;;;;;4.30;3.80;;;19.10;95.60;;;;;;4994416;28;21729;-86
2021/06/22 10:22:07;;;;;;;14.23;11.17;;;19.50;95.10;;;;;;5090411;22;21854;-83
2021/06/22 10:25:11;;;;;;;5.33;4.50;;;19.40;95.30;;;;;;5050140;28;20450;-85
2021/06/22 10:50:09;;;;;;;3.80;3.30;;;19.10;93.50;;;;;;1442662;26;20475;-83
2021/06/22 11:16:12;;;;;;;;;;;;;;;;;;;;;
2021/06/22 11:23:11;;;;;;;5.50;4.00;;;19.70;92.80;;;;;;4985429;28;21210;-82
2021/06/22 11:26:05;;;;;;;4.50;3.60;;;19.40;92.80;;;;;;4995126;28;20533;-82
2021/06/22 11:36:21;;;;;;;4.17;3.33;;;19.40;93.50;;;;;;4995877;28;21002;-84
2021/06/22 11:39:22;;;;;;;5.37;3.67;;;19.70;92.10;;;;;;5001921;28;20961;-82
2021/06/22 11:46:25;;;;;;;4.23;3.77;;;19.50;93.10;;;;;;4955601;28;20472;-85
2021/06/22 11:57:17;;;;;;;6.00;3.80;;;19.80;92.30;;;;;;4970212;28;20484;-82
2021/06/22 12:08:02;;;;;;;5.27;4.20;;;19.50;93.50;;;;;;5134543;22;21333;-83
2021/06/22 12:15:37;;;;;;;6.63;4.20;;;19.70;93.70;;;;;;4976619;28;20462;-83
2021/06/22 12:26:31;;;;;;;5.30;4.80;;;20.20;94.30;;;;;;1214358;26;20514;-82
2021/06/22 12:29:46;;;;;;;4.67;4.23;;;20.00;93.90;;;;;;5036600;28;20722;-83
2021/06/22 12:44:07;;;;;;;4.20;3.80;;;19.70;96.10;;;;;;5006304;28;20479;-85
2021/06/22 12:47:16;;;;;;;4.50;4.20;;;19.70;95.20;;;;;;5047286;28;20542;-83
2021/06/22 13:01:30;;;;;;;5.13;4.63;;;19.80;96.00;;;;;;5173624;22;20578;-84
2021/06/22 13:08:13;;;;;;;6.87;4.33;;;19.90;96.80;;;;;;5025874;22;20483;-84
2021/06/22 13:11:31;;;;;;;5.03;4.63;;;19.70;97.40;;;;;;5034723;28;20452;-86
2021/06/22 13:15:01;;;;;;;;;;;;;;;;;;;;;
2021/06/22 13:22:19;;;;;;;5.77;4.70;;;19.40;99.30;;;;;;5004116;28;20460;-84
2021/06/22 13:25:47;;;;;;;;;;;;;;;;;;;;;
2021/06/22 13:28:52;;;;;;;9.53;6.27;;;19.40;98.20;;;;;;5001589;28;20527;-85
2021/06/22 13:35:55;;;;;;;5.90;4.60;;;19.40;99.60;;;;;;4952669;28;20547;-81
2021/06/22 13:39:31;;;;;;;7.63;5.73;;;19.20;99.40;;;;;;4936490;29;20476;-84
2021/06/22 13:42:31;;;;;;;7.47;5.57;;;19.20;99.90;;;;;;4909901;29;20443;-85
2021/06/22 13:49:10;;;;;;;6.80;6.10;;;19.30;99.90;;;;;;5111278;22;20539;-82
2021/06/22 13:59:12;;;;;;;6.70;6.07;;;19.50;98.70;;;;;;5043141;28;20428;-83
2021/06/22 14:01:43;;;;;;;8.03;6.37;;;19.60;99.90;;;;;;5042528;28;20490;-83
2021/06/22 14:16:18;;;;;;;9.33;6.47;;;19.30;99.90;;;;;;2708123;22;20479;-84
2021/06/22 14:19:02;;;;;;;6.77;6.17;;;19.20;99.90;;;;;;5089382;28;20487;-83
2021/06/22 14:22:03;;;;;;;7.97;6.53;;;19.10;99.90;;;;;;5063773;28;20460;-84
2021/06/22 14:24:44;;;;;;;7.07;6.43;;;19.00;99.90;;;;;;5062215;28;20433;-83
2021/06/22 14:28:53;;;;;;;6.33;5.77;;;19.30;99.90;;;;;;5052708;28;20585;-83
2021/06/22 14:31:18;;;;;;;6.63;6.13;;;19.20;99.60;;;;;;5062789;28;20431;-83
2021/06/22 14:37:54;;;;;;;8.57;7.63;;;19.40;99.70;;;;;;5071363;28;20817;-83
2021/06/22 14:40:49;;;;;;;9.37;8.57;;;19.60;98.90;;;;;;5051610;28;20479;-83
2021/06/22 14:47:08;;;;;;;10.17;8.83;;;19.40;99.80;;;;;;5050393;28;21329;-85
2021/06/22 14:57:46;;;;;;;10.80;9.30;;;18.80;99.90;;;;;;5018378;28;20490;-84
2021/06/22 15:05:44;;;;;;;;;;;;;;;;;;;;;
2021/06/22 15:12:19;;;;;;;11.33;10.33;;;19.00;99.90;;;;;;4836551;29;20503;-83
2021/06/22 15:40:38;;;;;;;12.20;10.90;;;18.80;99.90;;;;;;4947310;28;20507;-85
2021/06/22 15:52:06;;;;;;;11.17;9.93;;;18.70;99.90;;;;;;4865029;29;20441;-85
2021/06/22 15:54:56;;;;;;;12.10;10.80;;;18.50;99.90;;;;;;4856338;29;20467;-82
2021/06/22 15:57:40;;;;;;;11.40;10.20;;;18.70;99.90;;;;;;4899969;29;20529;-81
2021/06/22 16:04:19;;;;;;;14.47;10.10;;;18.80;99.90;;;;;;4912166;29;20473;-85
2021/06/22 16:07:06;;;;;;;10.33;9.43;;;18.60;99.90;;;;;;4935990;28;20454;-84
2021/06/22 16:13:42;;;;;;;15.27;9.83;;;18.70;99.90;;;;;;4993338;28;22623;-85
2021/06/22 16:25:39;;;;;;;12.30;10.00;;;18.70;99.90;;;;;;5060553;28;20439;-83
2021/06/22 16:28:13;;;;;;;10.53;8.87;;;18.60;99.90;;;;;;5045375;28;20914;-85
2021/06/22 16:31:09;;;;;;;11.70;9.87;;;18.70;99.90;;;;;;5042604;28;20432;-84
2021/06/22 16:34:00;;;;;;;10.97;9.83;;;18.80;99.90;;;;;;5048840;28;20464;-85
2021/06/22 16:36:41;;;;;;;10.40;9.50;;;18.50;99.90;;;;;;5064137;28;20478;-85
2021/06/22 16:46:28;;;;;;;11.73;9.30;;;18.50;99.90;;;;;;4979172;28;21071;-84
2021/06/22 16:48:55;;;;;;;10.67;9.67;;;18.50;99.90;;;;;;4993529;28;20612;-85
2021/06/22 16:51:36;;;;;;;11.00;9.47;;;18.50;99.90;;;;;;5035054;28;20571;-84
2021/06/22 16:54:19;;;;;;;11.73;9.80;;;18.40;99.90;;;;;;5037186;28;20443;-86
2021/06/22 16:59:44;;;;;;;10.50;9.57;;;18.40;99.90;;;;;;5116896;22;20489;-85
2021/06/22 17:02:24;;;;;;;11.80;9.87;;;18.40;99.90;;;;;;5067336;28;20465;-84
2021/06/22 17:08:59;;;;;;;12.40;11.10;;;18.40;99.90;;;;;;4956285;28;21100;-84
2021/06/22 17:11:54;;;;;;;12.47;9.80;;;18.20;99.90;;;;;;4971674;28;20482;-83
2021/06/22 17:21:31;;;;;;;12.93;11.57;;;18.20;99.90;;;;;;4970280;28;20519;-83
2021/06/22 17:24:39;;;;;;;11.97;10.77;;;18.60;99.90;;;;;;4941011;28;20515;-85
2021/06/22 17:27:55;;;;;;;12.53;11.27;;;18.60;99.90;;;;;;4934952;28;21000;-84
2021/06/22 17:34:51;;;;;;;11.47;10.13;;;18.30;99.90;;;;;;4910437;29;20440;-86
2021/06/22 17:37:39;;;;;;;13.80;12.40;;;18.40;99.90;;;;;;4930579;29;20469;-85
2021/06/22 17:44:23;;;;;;;;;;;;;;;;;;;;;
2021/06/22 17:47:38;;;;;;;16.30;13.60;;;18.30;99.90;;;;;;5008064;28;20458;-83
2021/06/22 17:50:20;;;;;;;15.07;13.47;;;18.50;99.90;;;;;;5049793;28;20451;-83
2021/06/22 17:56:12;;;;;;;14.50;13.07;;;18.20;99.90;;;;;;5067753;28;20418;-86
2021/06/22 17:59:27;;;;;;;14.37;12.93;;;18.30;99.90;;;;;;5055301;28;20471;-85
2021/06/22 18:02:10;;;;;;;16.90;14.33;;;18.20;99.90;;;;;;5022435;28;20470;-83
2021/06/22 18:04:48;;;;;;;18.97;15.13;;;18.30;99.90;;;;;;5023117;28;20459;-84
2021/06/22 18:08:00;;;;;;;;;;;;;;;;;;;;;
2021/06/22 18:11:16;;;;;;;16.73;14.40;;;18.20;99.90;;;;;;5085782;28;20418;-84
2021/06/22 18:28:23;;;;;;;15.40;13.90;;;17.90;99.90;;;;;;4780036;22;10002604;-84
2021/06/22 18:34:24;;;;;;;11.30;10.20;;;17.80;99.90;;;;;;5008871;28;20562;-83
2021/06/22 18:42:50;;;;;;;11.47;10.30;;;17.80;99.90;;;;;;5076700;22;20492;-84
2021/06/22 18:46:16;;;;;;;10.67;9.67;;;17.80;99.90;;;;;;5050509;28;21001;-84
2021/06/22 18:49:29;;;;;;;11.30;9.97;;;17.70;99.90;;;;;;5050374;28;20867;-84
2021/06/22 18:51:59;;;;;;;11.17;10.03;;;17.70;99.90;;;;;;5049339;28;20451;-85
2021/06/22 18:55:40;;;;;;;10.90;9.80;;;17.50;99.90;;;;;;5030505;28;20443;-83
2021/06/22 19:12:41;;;;;;;12.07;10.77;;;17.70;99.90;;;;;;5030911;28;20524;-85
2021/06/22 19:15:29;;;;;;;11.43;10.20;;;17.90;99.90;;;;;;5024426;28;20448;-84
2021/06/22 19:23:35;;;;;;;10.37;9.30;;;17.60;99.90;;;;;;5353118;22;20523;-83
2021/06/22 19:26:17;;;;;;;10.30;9.40;;;17.60;99.90;;;;;;5043340;28;20485;-85
2021/06/22 19:28:48;;;;;;;9.87;8.93;;;17.60;99.90;;;;;;5069009;22;21600;-85
2021/06/22 19:31:26;;;;;;;11.10;10.10;;;17.60;99.90;;;;;;5048668;28;21303;-85
2021/06/22 19:38:02;;;;;;;11.00;9.87;;;17.60;99.90;;;;;;4986215;28;20453;-86
2021/06/22 20:02:27;;;;;;;;;;;;;;;;;;;;;
2021/06/22 20:05:32;;;;;;;11.30;10.30;;;17.80;99.90;;;;;;4939197;28;20454;-84
2021/06/22 20:33:06;;;;;;;12.50;11.30;;;18.00;99.90;;;;;;5064960;28;20494;-83
2021/06/22 20:36:00;;;;;;;13.83;11.70;;;18.00;99.90;;;;;;5055665;28;20427;-87
2021/06/22 20:42:41;;;;;;;13.17;11.70;;;18.00;99.90;;;;;;5063081;28;20415;-83
2021/06/22 20:49:05;;;;;;;12.17;10.90;;;18.00;99.90;;;;;;5054812;28;20427;-85
2021/06/22 20:52:14;;;;;;;11.87;10.70;;;17.90;99.90;;;;;;5038857;28;21024;-84
2021/06/22 21:31:55;;;;;;;14.70;13.30;;;17.80;99.90;;;;;;4910788;29;20556;-85
2021/06/22 21:53:03;;;;;;;18.53;16.83;;;18.00;99.90;;;;;;4988048;28;20422;-85
2021/06/22 22:06:57;;;;;;;19.63;17.70;;;17.50;99.90;;;;;;5096520;22;20485;-84
2021/06/22 22:09:28;;;;;;;20.67;18.57;;;17.60;99.90;;;;;;5070598;28;20562;-84
2021/06/22 22:11:58;;;;;;;20.60;18.50;;;17.70;99.90;;;;;;5053253;28;20451;-84
2021/06/22 22:22:53;;;;;;;20.67;18.50;;;17.70;99.90;;;;;;5041237;28;20436;-86
2021/06/22 22:26:24;;;;;;;;;;;;;;;;;;;;;
2021/06/22 22:29:11;;;;;;;20.60;18.60;;;17.40;99.90;;;;;;5378166;22;20626;-86
2021/06/22 22:40:19;;;;;;;21.23;19.13;;;17.40;99.90;;;;;;5425515;22;20499;-88
2021/06/22 22:42:46;;;;;;;20.73;18.63;;;17.50;99.90;;;;;;5054581;28;20494;-85
2021/06/22 22:45:38;;;;;;;21.50;19.50;;;17.40;99.90;;;;;;5063706;28;20541;-88
2021/06/22 22:48:20;;;;;;;23.13;20.73;;;17.60;99.90;;;;;;5056846;28;20555;-86
2021/06/22 22:51:06;;;;;;;22.03;19.97;;;17.50;99.90;;;;;;5052287;28;20452;-87
2021/06/22 22:54:37;;;;;;;;;;;;;;;;;;;;;
2021/06/22 22:57:45;;;;;;;24.27;21.33;;;17.60;99.90;;;;;;5060948;28;20575;-86
2021/06/22 23:00:31;;;;;;;23.93;21.33;;;17.60;99.90;;;;;;5034832;28;20555;-84
2021/06/22 23:03:37;;;;;;;26.03;23.10;;;17.70;99.90;;;;;;5063189;28;20495;-87
2021/06/22 23:06:23;;;;;;;25.83;23.10;;;17.60;99.90;;;;;;5029696;28;20456;-85
2021/06/22 23:09:04;;;;;;;25.53;23.10;;;17.50;99.90;;;;;;5043196;28;20487;-82
2021/06/22 23:11:47;;;;;;;26.17;23.10;;;17.40;99.90;;;;;;5039147;28;20456;-84
2021/06/22 23:14:43;;;;;;;25.07;22.43;;;17.30;99.90;;;;;;5040129;28;20456;-84
2021/06/22 23:17:22;;;;;;;58.53;28.57;;;17.10;99.90;;;;;;5023901;28;20468;-83
2021/06/22 23:20:08;;;;;;;24.27;21.80;;;17.30;99.90;;;;;;5023490;28;20509;-84
2021/06/22 23:22:46;;;;;;;25.67;23.17;;;17.20;99.90;;;;;;5024347;28;20456;-84
2021/06/22 23:25:46;;;;;;;27.27;24.60;;;17.20;99.90;;;;;;5023089;28;20493;-84
2021/06/22 23:31:17;;;;;;;27.43;24.87;;;17.20;99.90;;;;;;5029789;28;20503;-86
2021/06/22 23:34:28;;;;;;;27.17;24.33;;;17.10;99.90;;;;;;4945737;29;20444;-83
2021/06/22 23:37:09;;;;;;;30.53;26.73;;;17.10;99.90;;;;;;4942452;29;20460;-84
2021/06/22 23:39:49;;;;;;;28.50;25.53;;;17.20;99.90;;;;;;4942682;29;20461;-85
2021/06/22 23:43:18;;;;;;;;;;;;;;;;;;;;;
2021/06/22 23:46:08;;;;;;;26.50;23.80;;;17.50;99.90;;;;;;4939832;29;20728;-84
2021/06/22 23:49:03;;;;;;;28.70;25.80;;;17.30;99.90;;;;;;4946191;29;20484;-84
2021/06/22 23:51:56;;;;;;;27.80;24.87;;;17.50;99.90;;;;;;4931749;29;20476;-84
2021/06/22 23:54:44;;;;;;;28.13;25.33;;;17.50;99.90;;;;;;4926570;29;20468;-84
2021/06/22 23:57:39;;;;;;;26.70;24.00;;;17.50;99.90;;;;;;4944310;28;20475;-84
